createdAt,value
2023-04-03T00:01:19.776Z,1.80
2023-04-03T00:03:47.979Z,1.70
2023-04-03T00:06:16.207Z,2.50
2023-04-03T00:08:44.052Z,1.30
2023-04-03T00:11:11.771Z,1.70
2023-04-03T00:13:40.455Z,1.90
2023-04-03T00:16:09.600Z,1.40
2023-04-03T00:18:38.853Z,1.60
2023-04-03T00:21:07.244Z,2.00
2023-04-03T00:23:35.735Z,1.20
2023-04-03T00:26:03.537Z,1.50
2023-04-03T00:28:31.464Z,1.20
2023-04-03T00:30:59.198Z,1.80
2023-04-03T00:33:27.033Z,1.50
2023-04-03T00:35:54.870Z,1.50
2023-04-03T00:38:22.596Z,2.10
2023-04-03T00:40:50.749Z,1.30
2023-04-03T00:43:21.587Z,1.60
2023-04-03T00:45:51.915Z,1.40
2023-04-03T00:48:25.686Z,2.00
2023-04-03T00:50:53.946Z,1.40
2023-04-03T00:54:01.788Z,1.80
2023-04-03T00:56:31.250Z,1.90
2023-04-03T00:59:07.377Z,1.40
2023-04-03T01:01:35.589Z,1.00
2023-04-03T01:04:04.494Z,1.40
2023-04-03T01:06:36.346Z,1.90
2023-04-03T01:09:04.882Z,1.60
2023-04-03T01:11:32.541Z,1.30
2023-04-03T01:14:02.708Z,1.40
2023-04-03T01:16:33.036Z,1.00
2023-04-03T01:19:02.174Z,1.60
2023-04-03T01:21:44.704Z,1.60
2023-04-03T01:24:32.777Z,1.30
2023-04-03T01:27:03.697Z,1.30
2023-04-03T01:29:31.458Z,1.00
2023-04-03T01:32:01.156Z,1.40
2023-04-03T01:34:29.843Z,1.30
2023-04-03T01:36:58.198Z,1.20
2023-04-03T01:39:25.876Z,1.60
2023-04-03T01:41:53.545Z,1.30
2023-04-03T01:44:21.724Z,1.30
2023-04-03T01:46:49.382Z,1.00
2023-04-03T01:49:17.193Z,1.10
2023-04-03T01:51:44.876Z,1.00
2023-04-03T01:54:12.664Z,1.50
2023-04-03T01:56:40.632Z,1.30
2023-04-03T01:59:08.413Z,1.00
2023-04-03T02:01:36.143Z,1.40
2023-04-03T02:04:04.053Z,1.00
2023-04-03T02:06:31.824Z,0.60
2023-04-03T02:08:59.560Z,1.30
2023-04-03T02:11:27.240Z,1.60
2023-04-03T02:13:54.942Z,0.80
2023-04-03T02:16:22.698Z,1.30
2023-04-03T02:18:51.002Z,1.00
2023-04-03T02:21:18.714Z,1.20
2023-04-03T02:23:46.374Z,1.30
2023-04-03T02:26:16.703Z,1.60
2023-04-03T02:28:44.499Z,2.10
2023-04-03T02:31:12.514Z,1.10
2023-04-03T02:33:40.402Z,1.00
2023-04-03T02:36:09.633Z,1.20
2023-04-03T02:38:41.582Z,1.20
2023-04-03T02:41:12.225Z,1.20
2023-04-03T02:43:40.232Z,1.20
2023-04-03T02:46:08.711Z,1.40
2023-04-03T02:48:37.569Z,0.80
2023-04-03T02:51:05.905Z,1.00
2023-04-03T02:53:33.645Z,1.50
2023-04-03T02:56:11.880Z,1.20
2023-04-03T02:58:39.795Z,1.20
2023-04-03T03:01:07.526Z,1.30
2023-04-03T03:03:35.366Z,1.70
2023-04-03T03:06:08.546Z,1.40
2023-04-03T03:08:37.543Z,1.60
2023-04-03T03:11:06.009Z,1.50
2023-04-03T03:13:34.543Z,1.90
2023-04-03T03:16:03.379Z,1.50
2023-04-03T03:18:32.742Z,1.30
2023-04-03T03:21:01.654Z,1.40
2023-04-03T03:23:31.712Z,1.50
2023-04-03T03:26:08.987Z,1.50
2023-04-03T03:28:38.079Z,1.20
2023-04-03T03:31:07.201Z,1.40
2023-04-03T03:33:35.086Z,1.10
2023-04-03T03:36:02.882Z,1.30
2023-04-03T03:38:30.947Z,1.10
2023-04-03T03:40:58.891Z,1.20
2023-04-03T03:43:26.806Z,1.40
2023-04-03T03:45:55.808Z,1.20
2023-04-03T03:48:23.853Z,1.40
2023-04-03T03:50:51.931Z,1.20
2023-04-03T03:53:21.473Z,1.40
2023-04-03T03:58:20.036Z,1.20
2023-04-03T04:00:48.094Z,1.40
2023-04-03T04:03:16.128Z,1.30
2023-04-03T04:05:44.312Z,1.40
2023-04-03T04:08:12.284Z,1.80
2023-04-03T04:10:41.205Z,1.50
2023-04-03T04:13:09.295Z,1.20
2023-04-03T04:15:37.451Z,1.10
2023-04-03T04:18:05.825Z,1.10
2023-04-03T04:20:37.338Z,1.30
2023-04-03T04:23:05.155Z,1.90
2023-04-03T04:25:33.845Z,1.30
2023-04-03T04:28:01.789Z,1.30
2023-04-03T04:30:29.817Z,1.30
2023-04-03T04:32:57.819Z,1.60
2023-04-03T04:35:25.673Z,1.80
2023-04-03T04:37:53.347Z,1.20
2023-04-03T04:40:21.850Z,1.40
2023-04-03T04:42:49.571Z,1.50
2023-04-03T04:45:17.456Z,1.80
2023-04-03T04:47:45.685Z,1.80
2023-04-03T04:50:13.803Z,2.20
2023-04-03T04:52:42.306Z,1.80
2023-04-03T04:55:09.972Z,1.20
2023-04-03T04:57:39.882Z,1.40
2023-04-03T05:00:08.711Z,1.50
2023-04-03T05:02:36.517Z,1.50
2023-04-03T05:05:05.472Z,1.50
2023-04-03T05:07:33.467Z,1.40
2023-04-03T05:10:01.158Z,1.50
2023-04-03T05:12:29.807Z,1.90
2023-04-03T05:14:57.512Z,1.90
2023-04-03T05:17:25.224Z,1.90
2023-04-03T05:19:52.976Z,2.80
2023-04-03T05:22:20.618Z,1.80
2023-04-03T05:24:48.280Z,2.10
2023-04-03T05:27:15.957Z,2.00
2023-04-03T05:29:45.399Z,1.30
2023-04-03T05:32:13.278Z,1.90
2023-04-03T05:34:41.151Z,1.90
2023-04-03T05:37:08.937Z,2.30
2023-04-03T05:39:37.102Z,2.10
2023-04-03T05:42:04.964Z,2.60
2023-04-03T05:44:32.739Z,2.30
2023-04-03T05:47:00.958Z,1.80
2023-04-03T05:49:28.679Z,1.90
2023-04-03T05:51:56.499Z,1.60
2023-04-03T05:54:29.369Z,2.00
2023-04-03T05:56:57.186Z,1.40
2023-04-03T05:59:24.965Z,1.50
2023-04-03T06:01:53.283Z,1.30
2023-04-03T06:04:22.330Z,1.90
2023-04-03T06:06:52.576Z,1.50
2023-04-03T06:09:27.433Z,2.20
2023-04-03T06:11:55.751Z,1.40
2023-04-03T06:14:23.437Z,1.50
2023-04-03T06:16:51.170Z,1.60
2023-04-03T06:19:19.070Z,1.30
2023-04-03T06:21:48.256Z,1.90
2023-04-03T06:24:17.629Z,1.30
2023-04-03T06:26:45.527Z,1.20
2023-04-03T06:29:13.436Z,1.90
2023-04-03T06:31:41.155Z,1.50
2023-04-03T06:34:09.877Z,1.30
2023-04-03T06:37:21.013Z,2.00
2023-04-03T06:42:56.713Z,1.60
2023-04-03T06:45:26.575Z,1.20
2023-04-03T06:47:54.875Z,1.20
2023-04-03T06:50:22.724Z,1.40
2023-04-03T06:52:51.288Z,1.20
2023-04-03T06:55:19.603Z,1.80
2023-04-03T06:57:47.445Z,2.40
2023-04-03T07:00:15.712Z,2.30
2023-04-03T07:02:43.601Z,1.80
2023-04-03T07:05:11.494Z,1.80
2023-04-03T07:07:39.496Z,1.70
2023-04-03T07:10:17.237Z,1.30
2023-04-03T07:15:14.448Z,3.60
2023-04-03T07:17:43.666Z,1.90
2023-04-03T07:20:25.584Z,1.90
2023-04-03T07:22:53.248Z,2.00
2023-04-03T07:25:32.089Z,1.50
2023-04-03T07:28:03.069Z,1.70
2023-04-03T07:30:33.765Z,1.40
2023-04-03T07:33:01.956Z,1.20
2023-04-03T07:35:30.670Z,1.80
2023-04-03T07:37:58.733Z,2.10
2023-04-03T07:40:26.503Z,1.40
2023-04-03T07:42:57.555Z,1.20
2023-04-03T07:45:30.286Z,1.10
2023-04-03T07:47:58.465Z,1.30
2023-04-03T07:50:26.306Z,2.30
2023-04-03T07:52:57.705Z,1.40
2023-04-03T07:55:27.315Z,1.40
2023-04-03T07:58:04.309Z,1.20
2023-04-03T08:00:35.037Z,2.00
2023-04-03T08:03:04.977Z,1.50
2023-04-03T08:05:55.086Z,1.50
2023-04-03T08:08:28.518Z,1.50
2023-04-03T08:10:56.694Z,1.50
2023-04-03T08:13:31.909Z,1.40
2023-04-03T08:16:09.257Z,1.50
2023-04-03T08:18:37.091Z,1.50
2023-04-03T08:21:09.698Z,1.40
2023-04-03T08:23:38.060Z,1.50
2023-04-03T08:26:17.503Z,1.90
2023-04-03T08:28:45.421Z,1.30
2023-04-03T08:31:18.179Z,1.80
2023-04-03T08:33:46.813Z,1.10
2023-04-03T08:36:27.240Z,1.40
2023-04-03T08:38:56.606Z,1.30
2023-04-03T08:41:33.029Z,1.20
2023-04-03T08:44:03.746Z,2.00
2023-04-03T08:46:58.468Z,2.00
2023-04-03T08:49:32.897Z,1.30
2023-04-03T08:52:06.798Z,1.40
2023-04-03T08:54:38.125Z,1.20
2023-04-03T08:57:07.598Z,1.10
2023-04-03T08:59:39.566Z,0.90
2023-04-03T09:02:50.695Z,1.70
2023-04-03T09:05:31.380Z,1.30
2023-04-03T09:08:06.419Z,1.20
2023-04-03T09:10:39.284Z,3.00
2023-04-03T09:13:11.850Z,1.50
2023-04-03T09:15:39.976Z,1.50
2023-04-03T09:18:17.882Z,1.30
2023-04-03T09:21:30.372Z,1.40
2023-04-03T09:24:02.289Z,1.60
2023-04-03T09:26:34.843Z,1.10
2023-04-03T09:29:07.729Z,1.90
2023-04-03T09:31:44.748Z,1.50
2023-04-03T09:34:34.787Z,2.00
2023-04-03T09:37:07.151Z,1.30
2023-04-03T09:39:51.878Z,1.40
2023-04-03T09:42:22.510Z,1.40
2023-04-03T09:45:00.577Z,1.20
2023-04-03T09:47:30.270Z,1.30
2023-04-03T09:50:13.429Z,1.80
2023-04-03T09:52:44.283Z,1.10
2023-04-03T09:55:18.235Z,1.40
2023-04-03T09:57:52.364Z,1.50
2023-04-03T10:00:29.270Z,1.40
2023-04-03T10:02:58.781Z,1.10
2023-04-03T10:05:32.580Z,1.50
2023-04-03T10:08:20.683Z,1.40
2023-04-03T10:11:05.707Z,1.40
2023-04-03T10:13:36.283Z,1.10
2023-04-03T10:16:18.568Z,1.50
2023-04-03T10:18:57.585Z,1.30
2023-04-03T10:21:38.605Z,1.60
2023-04-03T10:24:31.243Z,1.30
2023-04-03T10:27:14.454Z,1.30
2023-04-03T10:30:06.902Z,1.40
2023-04-03T10:32:53.518Z,1.20
2023-04-03T10:35:30.277Z,1.20
2023-04-03T10:38:09.402Z,1.60
2023-04-03T10:41:02.092Z,1.40
2023-04-03T10:43:56.402Z,1.10
2023-04-03T10:46:39.391Z,1.40
2023-04-03T10:49:16.043Z,1.40
2023-04-03T10:51:48.731Z,1.20
2023-04-03T10:54:27.723Z,1.40
2023-04-03T10:57:11.772Z,2.30
2023-04-03T10:59:59.330Z,2.00
2023-04-03T11:02:38.662Z,1.20
2023-04-03T11:05:17.836Z,1.50
2023-04-03T11:07:49.981Z,1.50
2023-04-03T11:10:42.928Z,1.10
2023-04-03T11:13:20.385Z,1.30
2023-04-03T11:15:49.012Z,1.50
2023-04-03T11:18:29.877Z,2.10
2023-04-03T11:21:09.348Z,1.50
2023-04-03T11:23:48.677Z,1.40
2023-04-03T11:26:23.899Z,1.40
2023-04-03T11:29:00.023Z,1.80
2023-04-03T11:31:33.897Z,1.70
2023-04-03T11:34:37.355Z,1.80
2023-04-03T11:37:32.128Z,1.30
2023-04-03T11:40:08.549Z,1.60
2023-04-03T11:42:41.674Z,1.70
2023-04-03T11:45:28.825Z,1.20
2023-04-03T11:47:57.329Z,1.20
2023-04-03T11:50:32.937Z,1.00
2023-04-03T11:53:21.928Z,2.30
2023-04-03T11:55:49.620Z,2.10
2023-04-03T11:58:18.971Z,1.30
2023-04-03T12:00:50.629Z,1.20
2023-04-03T12:03:24.995Z,1.20
2023-04-03T12:06:15.955Z,1.40
2023-04-03T12:08:48.361Z,1.30
2023-04-03T12:11:31.224Z,1.30
2023-04-03T12:13:58.850Z,1.50
2023-04-03T12:16:38.476Z,1.20
2023-04-03T12:19:15.874Z,1.40
2023-04-03T12:21:47.470Z,1.30
2023-04-03T12:24:18.049Z,0.90
2023-04-03T12:26:52.354Z,1.40
2023-04-03T12:29:33.448Z,1.00
2023-04-03T12:32:32.556Z,1.60
2023-04-03T12:35:13.220Z,2.00
2023-04-03T12:38:18.141Z,1.60
2023-04-03T12:41:31.024Z,1.50
2023-04-03T12:44:43.414Z,1.30
2023-04-03T12:47:39.176Z,2.00
2023-04-03T12:50:31.976Z,2.00
2023-04-03T12:53:23.578Z,1.30
2023-04-03T12:55:56.323Z,1.30
2023-04-03T12:58:29.197Z,1.30
2023-04-03T13:01:13.230Z,1.00
2023-04-03T13:03:46.689Z,0.90
2023-04-03T13:06:24.310Z,0.90
2023-04-03T13:08:58.968Z,1.00
2023-04-03T13:11:31.295Z,1.20
2023-04-03T13:14:06.276Z,0.90
2023-04-03T13:16:34.870Z,1.20
2023-04-03T13:19:02.859Z,1.20
2023-04-03T13:21:34.735Z,1.20
2023-04-03T13:24:14.960Z,1.10
2023-04-03T13:26:44.046Z,1.10
2023-04-03T13:29:38.991Z,1.40
2023-04-03T13:32:08.242Z,1.60
2023-04-03T13:34:47.292Z,1.10
2023-04-03T13:37:31.081Z,1.00
2023-04-03T13:43:05.844Z,1.40
2023-04-03T13:45:35.595Z,1.00
2023-04-03T13:48:20.208Z,1.40
2023-04-03T13:50:53.077Z,1.10
2023-04-03T13:53:21.426Z,1.20
2023-04-03T13:56:01.050Z,1.40
2023-04-03T13:58:34.056Z,0.90
2023-04-03T14:01:19.706Z,1.10
2023-04-03T14:03:59.365Z,1.40
2023-04-03T14:06:27.670Z,1.80
2023-04-03T14:08:57.745Z,1.10
2023-04-03T14:11:30.659Z,1.20
2023-04-03T14:14:06.292Z,1.50
2023-04-03T14:16:40.592Z,1.20
2023-04-03T14:19:15.646Z,1.10
2023-04-03T14:21:43.357Z,1.20
2023-04-03T14:24:12.772Z,1.30
2023-04-03T14:26:40.665Z,1.30
2023-04-03T14:29:11.763Z,1.30
2023-04-03T14:31:41.549Z,1.60
2023-04-03T14:34:11.696Z,1.20
2023-04-03T14:36:41.596Z,1.40
2023-04-03T14:39:17.244Z,1.80
2023-04-03T14:41:46.174Z,1.60
2023-04-03T14:44:13.947Z,1.60
2023-04-03T14:49:30.326Z,2.70
2023-04-03T14:51:59.299Z,1.50
2023-04-03T14:54:29.090Z,1.20
2023-04-03T14:56:59.762Z,1.40
2023-04-03T14:59:29.285Z,1.80
2023-04-03T15:01:57.054Z,1.10
2023-04-03T15:04:26.373Z,1.30
2023-04-03T15:06:54.819Z,1.50
2023-04-03T15:09:25.466Z,2.00
2023-04-03T15:11:54.547Z,2.20
2023-04-03T15:14:35.926Z,2.20
2023-04-03T15:17:06.901Z,1.50
2023-04-03T15:19:39.369Z,2.40
2023-04-03T15:22:07.649Z,1.80
2023-04-03T15:24:35.344Z,1.80
2023-04-03T15:27:03.334Z,2.90
2023-04-03T15:29:31.229Z,4.90
2023-04-03T15:31:59.040Z,3.20
2023-04-03T15:34:26.877Z,3.60
2023-04-03T15:36:54.579Z,2.10
2023-04-03T15:39:23.872Z,2.40
2023-04-03T15:41:53.271Z,2.70
2023-04-03T15:44:21.697Z,3.00
2023-04-03T15:46:52.398Z,3.30
2023-04-03T15:49:22.113Z,2.90
2023-04-03T15:51:49.999Z,3.90
2023-04-03T15:54:18.224Z,5.00
2023-04-03T15:56:46.056Z,4.00
2023-04-03T15:59:13.886Z,4.10
2023-04-03T16:01:41.720Z,3.60
2023-04-03T16:04:11.169Z,17.80
2023-04-03T16:06:39.528Z,4.40
2023-04-03T16:09:08.506Z,9.30
2023-04-03T16:11:38.317Z,3.60
2023-04-03T16:14:07.225Z,2.30
2023-04-03T16:16:36.235Z,2.10
2023-04-03T16:19:05.396Z,2.90
2023-04-03T16:21:33.921Z,3.40
2023-04-03T16:24:03.075Z,3.00
2023-04-03T16:26:30.856Z,2.90
2023-04-03T16:28:58.537Z,2.70
2023-04-03T16:31:27.120Z,2.80
2023-04-03T16:33:56.022Z,3.00
2023-04-03T16:36:26.111Z,3.70
2023-04-03T16:38:53.907Z,4.00
2023-04-03T16:41:21.675Z,5.20
2023-04-03T16:43:51.078Z,8.10
2023-04-03T16:46:18.889Z,7.70
2023-04-03T16:48:46.746Z,5.50
2023-04-03T16:51:14.637Z,5.50
2023-04-03T16:53:43.182Z,4.60
2023-04-03T16:56:10.970Z,4.50
2023-04-03T16:58:38.833Z,3.70
2023-04-03T17:01:14.561Z,3.20
2023-04-03T17:03:42.569Z,4.10
2023-04-03T17:06:17.468Z,3.80
2023-04-03T17:08:48.302Z,3.40
2023-04-03T17:11:16.238Z,3.50
2023-04-03T17:13:44.034Z,3.60
2023-04-03T17:16:16.567Z,3.40
2023-04-03T17:18:48.588Z,3.20
2023-04-03T17:21:17.950Z,3.40
2023-04-03T17:23:48.430Z,3.50
2023-04-03T17:26:16.275Z,3.50
2023-04-03T17:28:59.882Z,3.60
2023-04-03T17:31:31.094Z,3.80
2023-04-03T17:34:01.765Z,4.20
2023-04-03T17:36:31.135Z,4.00
2023-04-03T17:38:59.158Z,3.70
2023-04-03T17:41:27.171Z,4.60
2023-04-03T17:43:57.083Z,6.90
2023-04-03T17:46:26.356Z,3.00
2023-04-03T17:48:54.202Z,3.10
2023-04-03T17:51:24.171Z,2.80
2023-04-03T17:53:51.988Z,3.20
2023-04-03T17:56:27.084Z,3.00
2023-04-03T17:58:56.804Z,3.30
2023-04-03T18:01:33.731Z,3.80
2023-04-03T18:04:04.685Z,4.10
2023-04-03T18:06:38.683Z,3.70
2023-04-03T18:09:13.678Z,4.30
2023-04-03T18:11:43.440Z,5.80
2023-04-03T18:14:13.199Z,7.20
2023-04-03T18:16:41.002Z,5.20
2023-04-03T18:19:21.814Z,7.30
2023-04-03T18:21:56.713Z,7.40
2023-04-03T18:24:26.327Z,9.70
2023-04-03T18:27:00.352Z,8.10
2023-04-03T18:29:33.076Z,6.90
2023-04-03T18:32:04.511Z,5.70
2023-04-03T18:37:00.654Z,4.90
2023-04-03T18:39:28.334Z,8.20
2023-04-03T18:42:00.085Z,5.30
2023-04-03T18:44:28.623Z,4.90
2023-04-03T18:46:58.953Z,4.10
2023-04-03T18:49:30.009Z,3.30
2023-04-03T18:51:57.738Z,4.10
2023-04-03T18:54:25.664Z,3.60
2023-04-03T18:56:53.408Z,3.40
2023-04-03T18:59:21.865Z,3.50
2023-04-03T19:01:49.969Z,3.60
2023-04-03T19:04:18.026Z,2.90
2023-04-03T19:06:45.761Z,4.30
2023-04-03T19:09:13.968Z,3.00
2023-04-03T19:11:41.835Z,3.40
2023-04-03T19:16:40.676Z,3.50
2023-04-03T19:19:08.913Z,3.20
2023-04-03T19:21:41.119Z,3.40
2023-04-03T19:24:11.518Z,4.10
2023-04-03T19:26:40.301Z,3.60
2023-04-03T19:29:08.480Z,4.30
2023-04-03T19:31:37.637Z,3.40
2023-04-03T19:34:06.547Z,3.60
2023-04-03T19:36:35.255Z,3.60
2023-04-03T19:39:04.036Z,4.50
2023-04-03T19:41:34.663Z,4.60
2023-04-03T19:44:05.898Z,3.10
2023-04-03T19:46:34.967Z,3.00
2023-04-03T19:49:03.220Z,3.80
2023-04-03T19:51:30.974Z,4.40
2023-04-03T19:53:58.723Z,4.80
2023-04-03T19:56:27.214Z,4.30
2023-04-03T19:58:55.017Z,3.60
2023-04-03T20:01:24.714Z,5.10
2023-04-03T20:03:52.723Z,4.30
2023-04-03T20:06:21.839Z,5.20
2023-04-03T20:08:49.876Z,4.20
2023-04-03T20:11:17.637Z,4.30
2023-04-03T20:13:45.658Z,4.10
2023-04-03T20:16:13.518Z,4.20
2023-04-03T20:18:42.459Z,4.80
2023-04-03T20:21:11.041Z,5.00
2023-04-03T20:23:38.877Z,3.80
2023-04-03T20:26:13.004Z,4.20
2023-04-03T20:28:43.766Z,4.40
2023-04-03T20:31:14.223Z,3.50
2023-04-03T20:33:42.892Z,3.30
2023-04-03T20:36:10.743Z,3.20
2023-04-03T20:38:38.597Z,3.10
2023-04-03T20:41:06.359Z,2.70
2023-04-03T20:43:34.339Z,3.30
2023-04-03T20:46:03.145Z,3.20
2023-04-03T20:48:32.388Z,2.60
2023-04-03T20:51:09.096Z,2.90
2023-04-03T20:53:36.881Z,2.40
2023-04-03T20:56:05.292Z,2.70
2023-04-03T20:58:35.658Z,3.10
2023-04-03T21:01:03.463Z,3.30
2023-04-03T21:03:31.404Z,2.90
2023-04-03T21:06:01.815Z,2.80
2023-04-03T21:09:07.464Z,2.60
2023-04-03T21:12:12.771Z,2.80
2023-04-03T21:15:20.312Z,3.20
2023-04-03T21:18:06.831Z,3.30
2023-04-03T21:20:34.665Z,2.10
2023-04-03T21:23:02.549Z,3.00
2023-04-03T21:25:30.911Z,2.40
2023-04-03T21:27:59.206Z,3.50
2023-04-03T21:30:27.198Z,2.30
2023-04-03T21:32:54.967Z,2.50
2023-04-03T21:35:22.713Z,3.20
2023-04-03T21:37:50.443Z,3.80
2023-04-03T21:40:18.890Z,3.90
2023-04-03T21:42:46.831Z,3.50
2023-04-03T21:45:16.265Z,3.20
2023-04-03T21:47:44.875Z,2.70
2023-04-03T21:50:12.753Z,2.80
2023-04-03T21:52:40.498Z,3.50
2023-04-03T21:55:09.209Z,2.70
2023-04-03T21:57:37.280Z,2.60
2023-04-03T22:00:10.701Z,3.00
2023-04-03T22:02:41.394Z,2.70
2023-04-03T22:05:09.405Z,3.10
2023-04-03T22:07:37.747Z,2.90
2023-04-03T22:10:06.298Z,2.80
2023-04-03T22:12:34.294Z,2.60
2023-04-03T22:15:02.362Z,3.60
2023-04-03T22:17:31.333Z,3.00
2023-04-03T22:19:59.076Z,3.60
2023-04-03T22:22:27.191Z,3.20
2023-04-03T22:24:55.774Z,2.70
2023-04-03T22:27:23.529Z,3.10
2023-04-03T22:29:51.504Z,3.10
2023-04-03T22:32:19.197Z,3.00
2023-04-03T22:34:47.236Z,3.30
2023-04-03T22:37:15.205Z,2.40
2023-04-03T22:39:43.194Z,2.80
2023-04-03T22:42:11.040Z,2.30
2023-04-03T22:44:38.937Z,3.00
2023-04-03T22:47:06.807Z,3.00
2023-04-03T22:49:34.718Z,3.10
2023-04-03T22:52:02.608Z,3.10
2023-04-03T22:54:30.365Z,3.20
2023-04-03T22:56:58.129Z,3.20
2023-04-03T22:59:26.037Z,3.10
2023-04-03T23:01:53.772Z,2.90
2023-04-03T23:04:21.511Z,3.70
2023-04-03T23:06:49.334Z,3.60
2023-04-03T23:09:17.131Z,3.00
2023-04-03T23:11:44.820Z,3.70
2023-04-03T23:14:12.577Z,2.30
2023-04-03T23:16:42.128Z,3.10
2023-04-03T23:19:09.941Z,2.60
2023-04-03T23:21:37.810Z,2.70
2023-04-03T23:24:05.781Z,3.30
2023-04-03T23:26:33.536Z,3.70
2023-04-03T23:29:01.619Z,3.10
2023-04-03T23:31:29.414Z,3.30
2023-04-03T23:33:57.112Z,2.80
2023-04-03T23:36:32.064Z,3.10
2023-04-03T23:39:03.116Z,2.40
2023-04-03T23:41:31.083Z,2.60
2023-04-03T23:43:58.839Z,2.80
2023-04-03T23:46:27.066Z,3.20
2023-04-03T23:48:54.759Z,2.80
2023-04-03T23:51:22.437Z,2.40
2023-04-03T23:53:50.709Z,2.70
2023-04-03T23:56:18.388Z,2.70
2023-04-03T23:58:46.461Z,2.50
